createdAt,value
2018-08-27T00:00:25.825Z,1.57
2018-08-27T00:02:55.585Z,1.30
2018-08-27T00:05:25.201Z,1.00
2018-08-27T00:07:54.692Z,1.40
2018-08-27T00:10:24.416Z,0.70
2018-08-27T00:12:53.862Z,1.27
2018-08-27T00:15:23.258Z,1.00
2018-08-27T00:17:52.677Z,1.13
2018-08-27T00:20:22.077Z,0.90
2018-08-27T00:22:51.472Z,1.13
2018-08-27T00:25:20.912Z,0.90
2018-08-27T00:27:50.725Z,0.70
2018-08-27T00:30:20.294Z,0.67
2018-08-27T00:32:49.875Z,0.90
2018-08-27T00:35:19.268Z,1.00
2018-08-27T00:37:48.646Z,0.90
2018-08-27T00:40:18.383Z,1.00
2018-08-27T00:42:48.314Z,0.60
2018-08-27T00:45:17.928Z,0.90
2018-08-27T00:47:47.805Z,0.83
2018-08-27T00:50:17.886Z,1.10
2018-08-27T00:52:47.819Z,0.90
2018-08-27T00:55:17.420Z,0.53
2018-08-27T00:57:47.233Z,0.57
2018-08-27T01:00:17.242Z,0.70
2018-08-27T01:02:46.844Z,0.83
2018-08-27T01:05:16.262Z,0.60
2018-08-27T01:07:45.773Z,0.90
2018-08-27T01:10:15.596Z,1.30
2018-08-27T01:12:45.190Z,0.97
2018-08-27T01:15:14.575Z,0.70
2018-08-27T01:17:43.977Z,0.87
2018-08-27T01:20:13.888Z,0.70
2018-08-27T01:22:43.458Z,0.70
2018-08-27T01:25:12.864Z,1.20
2018-08-27T01:27:42.222Z,0.90
2018-08-27T01:30:12.340Z,1.17
2018-08-27T01:32:41.932Z,0.60
2018-08-27T01:35:11.652Z,1.00
2018-08-27T01:37:41.560Z,0.57
2018-08-27T01:40:11.184Z,1.07
2018-08-27T01:42:40.574Z,0.60
2018-08-27T01:45:10.402Z,1.10
2018-08-27T01:47:40.050Z,0.70
2018-08-27T01:50:09.470Z,0.97
2018-08-27T01:52:38.862Z,0.93
2018-08-27T01:55:08.274Z,0.90
2018-08-27T01:57:37.777Z,0.93
2018-08-27T02:00:09.767Z,0.70
2018-08-27T02:02:40.228Z,0.50
2018-08-27T02:05:09.850Z,0.60
2018-08-27T02:07:39.262Z,0.90
2018-08-27T02:10:08.678Z,0.60
2018-08-27T02:12:38.603Z,1.10
2018-08-27T02:15:08.196Z,0.63
2018-08-27T02:17:37.575Z,0.90
2018-08-27T02:20:07.362Z,0.80
2018-08-27T02:22:36.959Z,0.73
2018-08-27T02:25:07.364Z,0.50
2018-08-27T02:27:37.379Z,0.50
2018-08-27T02:30:06.999Z,0.70
2018-08-27T02:32:36.369Z,0.70
2018-08-27T02:35:06.343Z,0.57
2018-08-27T02:37:35.922Z,0.77
2018-08-27T02:40:05.390Z,1.00
2018-08-27T02:42:34.799Z,0.83
2018-08-27T02:45:04.207Z,0.60
2018-08-27T02:47:33.996Z,0.80
2018-08-27T02:50:10.433Z,0.50
2018-08-27T02:52:40.010Z,0.57
2018-08-27T02:55:09.415Z,1.20
2018-08-27T02:57:38.835Z,0.60
2018-08-27T03:00:08.284Z,1.33
2018-08-27T03:02:37.698Z,0.63
2018-08-27T03:05:07.447Z,1.03
2018-08-27T03:07:37.128Z,0.77
2018-08-27T03:10:06.886Z,0.60
2018-08-27T03:12:36.494Z,1.00
2018-08-27T03:15:06.590Z,0.80
2018-08-27T03:17:36.238Z,0.60
2018-08-27T03:20:06.500Z,1.10
2018-08-27T03:22:36.486Z,1.17
2018-08-27T03:25:06.809Z,0.40
2018-08-27T03:27:36.821Z,0.50
2018-08-27T03:30:06.748Z,0.63
2018-08-27T03:32:36.543Z,0.80
2018-08-27T03:35:06.164Z,0.80
2018-08-27T03:37:36.061Z,1.43
2018-08-27T03:40:05.770Z,0.87
2018-08-27T03:42:35.528Z,0.83
2018-08-27T03:45:05.606Z,1.03
2018-08-27T03:47:35.603Z,0.90
2018-08-27T03:50:05.450Z,0.80
2018-08-27T03:52:34.828Z,0.90
2018-08-27T03:55:04.443Z,0.90
2018-08-27T03:57:34.255Z,0.90
2018-08-27T04:00:04.259Z,0.97
2018-08-27T04:02:33.845Z,0.80
2018-08-27T04:05:03.276Z,1.13
2018-08-27T04:07:33.000Z,1.13
2018-08-27T04:10:02.840Z,1.10
2018-08-27T04:12:32.232Z,0.70
2018-08-27T04:15:02.100Z,0.90
2018-08-27T04:17:32.702Z,0.80
2018-08-27T04:20:03.344Z,0.73
2018-08-27T04:22:32.740Z,1.10
2018-08-27T04:25:02.173Z,0.93
2018-08-27T04:27:31.556Z,1.20
2018-08-27T04:30:01.314Z,1.30
2018-08-27T04:32:31.013Z,1.10
2018-08-27T04:35:00.816Z,0.87
2018-08-27T04:37:30.418Z,1.20
2018-08-27T04:39:59.800Z,1.20
2018-08-27T04:42:29.578Z,1.03
2018-08-27T04:44:59.496Z,1.33
2018-08-27T04:47:29.142Z,1.00
2018-08-27T04:49:58.656Z,1.67
2018-08-27T04:52:28.370Z,1.40
2018-08-27T04:54:57.975Z,1.10
2018-08-27T04:57:27.458Z,1.37
2018-08-27T05:00:00.342Z,1.10
2018-08-27T05:02:30.254Z,1.23
2018-08-27T05:04:59.896Z,1.30
2018-08-27T05:07:29.691Z,1.30
2018-08-27T05:09:59.325Z,1.50
2018-08-27T05:12:28.686Z,1.57
2018-08-27T05:14:58.452Z,1.47
2018-08-27T05:17:28.410Z,1.60
2018-08-27T05:19:58.333Z,1.70
2018-08-27T05:22:27.996Z,1.73
2018-08-27T05:24:57.362Z,1.47
2018-08-27T05:27:27.122Z,1.33
2018-08-27T05:29:57.058Z,1.70
2018-08-27T05:32:26.689Z,1.40
2018-08-27T05:34:56.114Z,2.23
2018-08-27T05:37:25.873Z,2.07
2018-08-27T05:39:56.360Z,1.30
2018-08-27T05:42:26.043Z,1.47
2018-08-27T05:44:55.426Z,1.90
2018-08-27T05:47:25.317Z,2.33
2018-08-27T05:49:54.922Z,2.30
2018-08-27T05:52:25.891Z,1.67
2018-08-27T05:54:55.826Z,1.50
2018-08-27T05:57:25.434Z,2.17
2018-08-27T05:59:55.173Z,1.93
2018-08-27T06:02:24.814Z,1.80
2018-08-27T06:04:54.247Z,2.13
2018-08-27T06:07:23.634Z,2.60
2018-08-27T06:09:53.030Z,2.50
2018-08-27T06:12:22.417Z,2.30
2018-08-27T06:14:51.824Z,2.33
2018-08-27T06:17:21.546Z,2.37
2018-08-27T06:19:51.163Z,1.80
2018-08-27T06:22:21.017Z,2.53
2018-08-27T06:24:50.984Z,3.53
2018-08-27T06:27:20.970Z,2.73
2018-08-27T06:29:50.600Z,2.90
2018-08-27T06:32:19.981Z,3.60
2018-08-27T06:34:49.723Z,3.07
2018-08-27T06:37:20.826Z,3.43
2018-08-27T06:39:50.278Z,3.40
2018-08-27T06:42:19.653Z,3.13
2018-08-27T06:44:49.450Z,3.67
2018-08-27T06:47:19.124Z,3.87
2018-08-27T06:49:48.502Z,3.77
2018-08-27T06:52:18.365Z,3.57
2018-08-27T06:54:47.972Z,4.00
2018-08-27T06:57:17.379Z,3.73
2018-08-27T06:59:47.090Z,3.87
2018-08-27T07:02:16.799Z,3.43
2018-08-27T07:04:46.147Z,3.47
2018-08-27T07:07:15.549Z,4.50
2018-08-27T07:09:45.270Z,3.60
2018-08-27T07:12:14.910Z,4.23
2018-08-27T07:14:44.621Z,3.43
2018-08-27T07:17:14.619Z,3.43
2018-08-27T07:19:44.762Z,4.10
2018-08-27T07:22:14.370Z,3.43
2018-08-27T07:24:43.752Z,3.70
2018-08-27T07:27:13.166Z,3.20
2018-08-27T07:29:43.046Z,3.23
2018-08-27T07:32:12.665Z,3.83
2018-08-27T07:34:42.436Z,4.47
2018-08-27T07:37:12.421Z,4.40
2018-08-27T07:39:42.018Z,3.57
2018-08-27T07:42:11.808Z,3.60
2018-08-27T07:44:41.807Z,3.27
2018-08-27T07:47:11.421Z,4.17
2018-08-27T07:49:40.920Z,3.87
2018-08-27T07:52:10.380Z,3.63
2018-08-27T07:54:40.372Z,4.10
2018-08-27T07:57:10.365Z,4.37
2018-08-27T07:59:39.989Z,4.73
2018-08-27T08:02:10.522Z,4.00
2018-08-27T08:04:39.976Z,4.20
2018-08-27T08:07:09.817Z,3.90
2018-08-27T08:09:39.385Z,4.10
2018-08-27T08:12:08.812Z,4.63
2018-08-27T08:14:38.526Z,3.43
2018-08-27T08:17:08.149Z,4.53
2018-08-27T08:19:37.670Z,4.30
2018-08-27T08:22:07.114Z,4.67
2018-08-27T08:24:36.521Z,4.10
2018-08-27T08:27:06.258Z,3.10
2018-08-27T08:29:35.950Z,4.47
2018-08-27T08:32:05.358Z,4.40
2018-08-27T08:34:35.128Z,3.70
2018-08-27T08:37:05.212Z,3.53
2018-08-27T08:39:34.816Z,3.20
2018-08-27T08:42:04.633Z,3.37
2018-08-27T08:44:34.229Z,3.93
2018-08-27T08:47:03.852Z,2.50
2018-08-27T08:49:33.268Z,2.40
2018-08-27T08:52:02.674Z,2.17
2018-08-27T08:54:32.070Z,2.87
2018-08-27T08:57:01.895Z,2.27
2018-08-27T08:59:31.508Z,2.73
2018-08-27T09:02:01.078Z,2.37
2018-08-27T09:04:31.025Z,1.83
2018-08-27T09:07:00.913Z,2.17
2018-08-27T09:09:30.612Z,1.90
2018-08-27T09:12:00.321Z,2.00
2018-08-27T09:14:29.698Z,2.30
2018-08-27T09:16:59.147Z,2.47
2018-08-27T09:19:28.889Z,1.50
2018-08-27T09:21:58.526Z,1.47
2018-08-27T09:24:28.212Z,1.60
2018-08-27T09:26:57.599Z,1.40
2018-08-27T09:29:26.985Z,1.53
2018-08-27T09:31:56.380Z,1.40
2018-08-27T09:34:25.806Z,1.40
2018-08-27T09:36:55.695Z,1.70
2018-08-27T09:39:25.290Z,1.47
2018-08-27T09:41:54.708Z,1.27
2018-08-27T09:44:24.448Z,1.13
2018-08-27T09:46:54.494Z,1.33
2018-08-27T09:49:24.134Z,1.30
2018-08-27T09:51:57.186Z,1.63
2018-08-27T09:54:26.820Z,1.10
2018-08-27T09:56:56.615Z,1.10
2018-08-27T09:59:26.629Z,1.20
2018-08-27T10:02:01.315Z,0.90
2018-08-27T10:04:30.696Z,1.27
2018-08-27T10:07:00.473Z,1.00
2018-08-27T10:09:30.070Z,1.43
2018-08-27T10:11:59.494Z,1.77
2018-08-27T10:14:28.910Z,1.00
2018-08-27T10:16:58.381Z,1.00
2018-08-27T10:19:28.125Z,1.17
2018-08-27T10:21:57.699Z,1.10
2018-08-27T10:24:28.234Z,1.33
2018-08-27T10:26:57.832Z,1.00
2018-08-27T10:29:27.748Z,1.00
2018-08-27T10:31:57.352Z,1.33
2018-08-27T10:34:27.060Z,1.10
2018-08-27T10:36:57.075Z,1.40
2018-08-27T10:39:27.099Z,1.33
2018-08-27T10:41:56.715Z,0.87
2018-08-27T10:44:26.426Z,1.07
2018-08-27T10:46:56.042Z,0.90
2018-08-27T10:49:25.475Z,0.83
2018-08-27T10:51:54.941Z,1.00
2018-08-27T10:54:24.652Z,0.70
2018-08-27T10:56:54.284Z,0.70
2018-08-27T10:59:23.736Z,0.70
2018-08-27T11:01:53.474Z,1.10
2018-08-27T11:04:23.075Z,0.73
2018-08-27T11:06:52.476Z,1.00
2018-08-27T11:09:21.866Z,0.80
2018-08-27T11:11:51.666Z,1.47
2018-08-27T11:14:21.243Z,1.13
2018-08-27T11:16:50.645Z,1.10
2018-08-27T11:19:20.474Z,1.00
2018-08-27T11:21:50.169Z,1.00
2018-08-27T11:24:21.880Z,0.90
2018-08-27T11:26:51.820Z,1.07
2018-08-27T11:29:21.418Z,1.40
2018-08-27T11:31:50.818Z,1.30
2018-08-27T11:34:20.528Z,1.13
2018-08-27T11:36:50.344Z,1.20
2018-08-27T11:39:19.709Z,1.23
2018-08-27T11:41:49.502Z,1.00
2018-08-27T11:44:19.136Z,1.47
2018-08-27T11:46:48.542Z,1.67
2018-08-27T11:49:17.942Z,1.57
2018-08-27T11:51:47.496Z,1.03
2018-08-27T11:54:17.295Z,0.83
2018-08-27T11:56:46.902Z,0.80
2018-08-27T11:59:16.664Z,0.70
2018-08-27T12:01:46.325Z,0.87
2018-08-27T12:04:16.180Z,0.67
2018-08-27T12:06:46.148Z,1.10
2018-08-27T12:09:22.291Z,0.70
2018-08-27T12:11:52.152Z,0.60
2018-08-27T12:14:22.108Z,0.60
2018-08-27T12:16:51.809Z,0.90
2018-08-27T12:19:21.568Z,1.23
2018-08-27T12:21:51.224Z,0.90
2018-08-27T12:24:20.606Z,1.20
2018-08-27T12:26:50.019Z,0.80
2018-08-27T12:29:19.674Z,0.90
2018-08-27T12:31:49.122Z,1.00
2018-08-27T12:34:18.524Z,1.43
2018-08-27T12:36:47.917Z,1.03
2018-08-27T12:39:17.296Z,1.00
2018-08-27T12:41:46.716Z,0.90
2018-08-27T12:44:16.458Z,0.93
2018-08-27T12:46:46.195Z,0.80
2018-08-27T12:49:15.566Z,0.73
2018-08-27T12:51:45.040Z,0.83
2018-08-27T12:54:14.455Z,0.60
2018-08-27T12:56:44.351Z,0.80
2018-08-27T12:59:13.957Z,0.90
2018-08-27T13:01:43.393Z,0.70
2018-08-27T13:04:13.270Z,1.10
2018-08-27T13:06:43.215Z,0.80
2018-08-27T13:09:13.217Z,1.03
2018-08-27T13:11:43.311Z,0.70
2018-08-27T13:14:13.264Z,0.87
2018-08-27T13:16:44.083Z,0.93
2018-08-27T13:19:13.500Z,0.80
2018-08-27T13:21:42.975Z,0.87
2018-08-27T13:24:12.717Z,1.00
2018-08-27T13:26:42.715Z,0.90
2018-08-27T13:29:13.040Z,1.30
2018-08-27T13:31:42.918Z,1.30
2018-08-27T13:34:12.500Z,1.00
2018-08-27T13:36:42.201Z,1.00
2018-08-27T13:39:11.967Z,0.80
2018-08-27T13:41:41.695Z,0.80
2018-08-27T13:44:11.043Z,0.73
2018-08-27T13:46:40.886Z,0.67
2018-08-27T13:49:10.905Z,1.07
2018-08-27T13:51:46.237Z,0.67
2018-08-27T13:54:16.467Z,0.80
2018-08-27T13:56:46.463Z,1.20
2018-08-27T13:59:16.083Z,0.90
2018-08-27T14:01:45.517Z,0.70
2018-08-27T14:04:15.219Z,0.73
2018-08-27T14:06:45.431Z,0.70
2018-08-27T14:09:15.024Z,0.63
2018-08-27T14:11:44.523Z,0.80
2018-08-27T14:14:14.623Z,1.00
2018-08-27T14:16:44.025Z,1.10
2018-08-27T14:19:13.632Z,1.03
2018-08-27T14:21:43.256Z,1.37
2018-08-27T14:24:12.875Z,1.27
2018-08-27T14:26:42.258Z,0.90
2018-08-27T14:29:11.726Z,0.87
2018-08-27T14:31:41.221Z,0.97
2018-08-27T14:34:10.918Z,1.33
2018-08-27T14:36:40.505Z,0.83
2018-08-27T14:39:10.847Z,0.63
2018-08-27T14:41:40.491Z,1.50
2018-08-27T14:44:13.592Z,0.93
2018-08-27T14:46:42.961Z,0.90
2018-08-27T14:49:12.816Z,1.00
2018-08-27T14:51:42.410Z,0.93
2018-08-27T14:54:12.051Z,0.93
2018-08-27T14:56:41.483Z,0.90
2018-08-27T14:59:10.963Z,1.30
2018-08-27T15:01:40.379Z,0.90
2018-08-27T15:04:09.743Z,0.70
2018-08-27T15:06:39.514Z,1.20
2018-08-27T15:09:09.586Z,0.80
2018-08-27T15:11:39.247Z,1.17
2018-08-27T15:14:08.669Z,0.97
2018-08-27T15:16:38.437Z,1.20
2018-08-27T15:19:08.079Z,1.50
2018-08-27T15:21:37.483Z,0.93
2018-08-27T15:24:07.253Z,0.97
2018-08-27T15:26:37.320Z,1.07
2018-08-27T15:29:07.340Z,1.20
2018-08-27T15:31:37.002Z,1.00
2018-08-27T15:34:07.212Z,1.17
2018-08-27T15:36:36.936Z,1.20
2018-08-27T15:39:08.541Z,1.00
2018-08-27T15:41:38.380Z,1.20
2018-08-27T15:44:08.373Z,1.30
2018-08-27T15:46:40.978Z,1.37
2018-08-27T15:49:10.856Z,1.27
2018-08-27T15:51:41.021Z,1.20
2018-08-27T15:54:11.637Z,1.47
2018-08-27T15:56:41.915Z,1.67
2018-08-27T15:59:11.288Z,1.00
2018-08-27T16:01:41.024Z,1.20
2018-08-27T16:04:10.822Z,0.87
2018-08-27T16:06:40.125Z,1.40
2018-08-27T16:09:09.539Z,1.00
2018-08-27T16:11:38.952Z,1.13
2018-08-27T16:14:08.749Z,1.00
2018-08-27T16:16:38.751Z,1.20
2018-08-27T16:19:08.373Z,1.43
2018-08-27T16:21:37.825Z,2.07
2018-08-27T16:24:07.255Z,1.40
2018-08-27T16:26:40.314Z,1.10
2018-08-27T16:29:10.667Z,1.40
2018-08-27T16:31:40.089Z,1.70
2018-08-27T16:34:09.490Z,1.27
2018-08-27T16:36:38.903Z,1.10
2018-08-27T16:39:08.685Z,0.90
2018-08-27T16:41:38.589Z,1.10
2018-08-27T16:44:08.128Z,1.20
2018-08-27T16:46:37.871Z,1.17
2018-08-27T16:49:07.495Z,1.20
2018-08-27T16:51:36.919Z,1.20
2018-08-27T16:54:06.739Z,0.80
2018-08-27T16:56:36.741Z,0.90
2018-08-27T16:59:06.703Z,1.07
2018-08-27T17:01:36.951Z,0.90
2018-08-27T17:04:06.331Z,1.07
2018-08-27T17:06:36.357Z,1.00
2018-08-27T17:09:12.830Z,0.93
2018-08-27T17:11:42.219Z,1.00
2018-08-27T17:14:11.972Z,1.27
2018-08-27T17:16:41.970Z,1.17
2018-08-27T17:19:11.991Z,1.07
2018-08-27T17:21:41.951Z,0.83
2018-08-27T17:24:11.937Z,1.10
2018-08-27T17:26:41.915Z,1.73
2018-08-27T17:29:11.871Z,1.20
2018-08-27T17:31:41.239Z,1.27
2018-08-27T17:34:10.727Z,0.97
2018-08-27T17:36:41.488Z,0.97
2018-08-27T17:39:12.296Z,0.90
2018-08-27T17:41:41.915Z,0.93
2018-08-27T17:44:11.775Z,1.40
2018-08-27T17:46:41.494Z,1.50
2018-08-27T17:49:11.807Z,1.47
2018-08-27T17:51:41.937Z,1.50
2018-08-27T17:54:11.597Z,1.20
2018-08-27T17:56:41.444Z,1.17
2018-08-27T17:59:11.099Z,0.90
2018-08-27T18:01:40.534Z,1.47
2018-08-27T18:04:10.393Z,1.00
2018-08-27T18:06:40.035Z,0.90
2018-08-27T18:09:09.437Z,0.97
2018-08-27T18:11:38.842Z,1.43
2018-08-27T18:14:08.658Z,1.00
2018-08-27T18:16:38.439Z,0.77
2018-08-27T18:19:07.804Z,1.10
2018-08-27T18:21:37.245Z,1.20
2018-08-27T18:24:07.124Z,1.63
2018-08-27T18:26:37.238Z,0.93
2018-08-27T18:29:06.948Z,1.00
2018-08-27T18:31:36.358Z,1.30
2018-08-27T18:34:06.229Z,0.80
2018-08-27T18:36:35.877Z,0.90
2018-08-27T18:39:06.093Z,0.90
2018-08-27T18:41:36.364Z,0.93
2018-08-27T18:44:07.050Z,0.70
2018-08-27T18:46:37.376Z,0.70
2018-08-27T18:49:07.099Z,1.77
2018-08-27T18:51:36.653Z,0.90
2018-08-27T18:54:06.168Z,1.20
2018-08-27T18:56:35.750Z,0.90
2018-08-27T18:59:05.762Z,1.20
2018-08-27T19:01:39.764Z,0.93
2018-08-27T19:04:09.457Z,1.27
2018-08-27T19:06:39.400Z,1.03
2018-08-27T19:09:11.430Z,1.07
2018-08-27T19:11:40.926Z,1.30
2018-08-27T19:14:10.426Z,0.90
2018-08-27T19:16:41.106Z,0.73
2018-08-27T19:19:10.774Z,1.23
2018-08-27T19:21:40.634Z,1.10
2018-08-27T19:24:10.848Z,0.93
2018-08-27T19:26:41.202Z,1.07
2018-08-27T19:29:10.916Z,0.70
2018-08-27T19:31:40.806Z,0.73
2018-08-27T19:34:10.584Z,1.30
2018-08-27T19:36:40.453Z,0.90
2018-08-27T19:39:09.870Z,1.10
2018-08-27T19:41:39.414Z,1.70
2018-08-27T19:44:09.382Z,0.97
2018-08-27T19:46:39.132Z,1.27
2018-08-27T19:49:09.038Z,0.80
2018-08-27T19:51:38.824Z,1.17
2018-08-27T19:54:08.716Z,1.03
2018-08-27T19:56:38.860Z,0.80
2018-08-27T19:59:08.575Z,1.13
2018-08-27T20:01:38.062Z,1.07
2018-08-27T20:04:07.600Z,0.83
2018-08-27T20:06:37.529Z,0.80
2018-08-27T20:09:07.276Z,1.50
2018-08-27T20:11:36.760Z,0.97
2018-08-27T20:14:06.345Z,1.13
2018-08-27T20:16:36.259Z,1.33
2018-08-27T20:19:06.125Z,0.60
2018-08-27T20:21:36.034Z,0.80
2018-08-27T20:24:05.961Z,0.67
2018-08-27T20:26:35.470Z,0.43
2018-08-27T20:29:05.046Z,0.97
2018-08-27T20:31:34.684Z,0.70
2018-08-27T20:34:04.184Z,0.73
2018-08-27T20:36:33.774Z,0.87
2018-08-27T20:39:03.376Z,0.90
2018-08-27T20:41:33.296Z,0.93
2018-08-27T20:44:02.976Z,0.93
2018-08-27T20:46:32.767Z,0.80
2018-08-27T20:49:02.477Z,1.13
2018-08-27T20:51:32.326Z,0.90
2018-08-27T20:54:04.166Z,0.53
2018-08-27T20:56:34.244Z,0.60
2018-08-27T20:59:03.904Z,1.10
2018-08-27T21:01:33.638Z,0.70
2018-08-27T21:04:03.587Z,1.00
2018-08-27T21:06:33.560Z,1.10
2018-08-27T21:09:03.700Z,0.70
2018-08-27T21:11:33.652Z,0.67
2018-08-27T21:14:08.816Z,0.80
2018-08-27T21:16:38.352Z,0.60
2018-08-27T21:19:07.758Z,0.93
2018-08-27T21:21:37.183Z,1.03
2018-08-27T21:24:07.479Z,0.93
2018-08-27T21:26:37.405Z,1.07
2018-08-27T21:29:06.991Z,1.70
2018-08-27T21:31:36.417Z,0.90
2018-08-27T21:34:06.202Z,1.07
2018-08-27T21:36:35.775Z,1.00
2018-08-27T21:39:05.190Z,0.80
2018-08-27T21:41:34.931Z,0.80
2018-08-27T21:44:04.631Z,0.70
2018-08-27T21:46:34.157Z,1.47
2018-08-27T21:49:03.917Z,0.80
2018-08-27T21:51:33.896Z,0.60
2018-08-27T21:54:04.389Z,0.90
2018-08-27T21:56:34.167Z,1.20
2018-08-27T21:59:03.928Z,1.07
2018-08-27T22:01:33.565Z,0.80
2018-08-27T22:04:08.715Z,1.40
2018-08-27T22:09:40.877Z,0.50
2018-08-27T22:12:10.345Z,1.03
2018-08-27T22:14:39.817Z,1.30
2018-08-27T22:17:10.181Z,0.70
2018-08-27T22:19:40.373Z,0.70
2018-08-27T22:22:09.860Z,0.80
2018-08-27T22:24:39.551Z,0.70
2018-08-27T22:27:09.402Z,1.20
2018-08-27T22:29:39.079Z,1.37
2018-08-27T22:32:08.497Z,0.80
2018-08-27T22:34:38.297Z,1.13
2018-08-27T22:37:08.011Z,0.63
2018-08-27T22:39:38.029Z,0.90
2018-08-27T22:42:07.673Z,1.40
2018-08-27T22:44:37.447Z,0.90
2018-08-27T22:47:10.106Z,0.63
2018-08-27T22:49:41.041Z,1.30
2018-08-27T22:52:10.875Z,0.70
2018-08-27T22:54:40.767Z,1.43
2018-08-27T22:57:10.442Z,1.50
2018-08-27T22:59:39.957Z,0.63
2018-08-27T23:02:09.421Z,1.10
2018-08-27T23:04:44.097Z,0.50
2018-08-27T23:07:13.558Z,0.80
2018-08-27T23:09:43.003Z,1.33
2018-08-27T23:12:12.431Z,0.93
2018-08-27T23:14:42.229Z,1.27
2018-08-27T23:17:12.233Z,1.33
2018-08-27T23:19:41.870Z,0.73
2018-08-27T23:22:11.289Z,0.63
2018-08-27T23:24:40.733Z,1.77
2018-08-27T23:27:10.543Z,1.10
2018-08-27T23:29:40.201Z,0.77
2018-08-27T23:32:09.655Z,0.80
2018-08-27T23:34:39.137Z,1.07
2018-08-27T23:37:08.923Z,1.00
2018-08-27T23:39:38.940Z,0.90
2018-08-27T23:42:08.628Z,0.90
2018-08-27T23:44:38.076Z,0.83
2018-08-27T23:47:07.897Z,1.00
2018-08-27T23:49:37.352Z,1.33
2018-08-27T23:52:06.894Z,0.80
2018-08-27T23:54:36.294Z,1.17
2018-08-27T23:57:05.809Z,0.90
2018-08-27T23:59:35.229Z,0.80
